Time;durP1;ratioP1;P1;durP2;ratioP2;P2;SDS_P1;SDS_P2;PMS_P1;PMS_P2;Temp;Humidity;BMP_temperature;BMP_pressure;BME280_temperature;BME280_humidity;BME280_pressure;Samples;Min_cycle;Max_cycle;Signal;HPM_P1;HPM_P2
2021/04/09 00:00:59;;;;;;;11.80;6.38;;;;;;;;;;5025615;28;20054;-92
2021/04/09 00:03:28;;;;;;;13.48;7.20;;;;;;;;;;4998742;28;20477;-93
2021/04/09 00:05:56;;;;;;;11.43;6.57;;;;;;;;;;5028551;28;20119;-93
2021/04/09 00:08:24;;;;;;;9.38;5.72;;;;;;;;;;5031173;28;20072;-93
2021/04/09 00:13:38;;;;;;;12.05;6.07;;;;;;;;;;5014871;28;20112;-92
2021/04/09 00:16:07;;;;;;;12.00;6.30;;;;;;;;;;4998489;28;20053;-92
2021/04/09 00:18:36;;;;;;;12.30;6.35;;;;;;;;;;5014928;28;20398;-93
2021/04/09 00:23:47;;;;;;;10.85;5.50;;;;;;;;;;5000970;28;20112;-93
2021/04/09 00:26:14;;;;;;;10.95;6.10;;;;;;;;;;5015768;28;20104;-93
2021/04/09 00:28:44;;;;;;;11.15;6.28;;;;;;;;;;5014994;28;20058;-92
2021/04/09 00:34:00;;;;;;;13.05;5.55;;;;;;;;;;4995903;28;20078;-92
2021/04/09 00:36:28;;;;;;;8.65;5.38;;;;;;;;;;5005796;28;20045;-92
2021/04/09 00:41:41;;;;;;;10.95;5.85;;;;;;;;;;5013884;28;20041;-93
2021/04/09 00:44:10;;;;;;;11.15;5.60;;;;;;;;;;5015422;28;20050;-93
2021/04/09 00:46:38;;;;;;;11.75;6.13;;;;;;;;;;5015404;28;20397;-92
2021/04/09 00:49:07;;;;;;;10.48;5.85;;;;;;;;;;5014300;28;20103;-92
2021/04/09 00:51:36;;;;;;;9.00;4.88;;;;;;;;;;4998535;28;20400;-93
2021/04/09 00:54:04;;;;;;;9.65;5.88;;;;;;;;;;4990749;28;20058;-93
2021/04/09 00:56:33;;;;;;;9.20;5.80;;;;;;;;;;4995745;28;20061;-92
2021/04/09 00:59:02;;;;;;;12.98;6.70;;;;;;;;;;4995022;28;20050;-93
2021/04/09 01:01:43;;;;;;;9.18;4.38;;;;;;;;;;5026056;23;20058;-67
2021/04/09 01:04:12;;;;;;;9.50;5.60;;;;;;;;;;5014649;28;20101;-72
2021/04/09 01:06:39;;;;;;;8.88;5.07;;;;;;;;;;5014382;28;20531;-71
2021/04/09 01:09:07;;;;;;;8.55;4.75;;;;;;;;;;5026990;28;20463;-70
2021/04/09 01:11:34;;;;;;;11.63;5.03;;;;;;;;;;5030426;28;20080;-72
2021/04/09 01:14:01;;;;;;;11.00;4.93;;;;;;;;;;5025905;28;20540;-74
2021/04/09 01:16:44;;;;;;;8.98;4.28;;;;;;;;;;5030401;28;20088;-70
2021/04/09 01:19:31;;;;;;;9.20;4.75;;;;;;;;;;5024769;28;20415;-69
2021/04/09 01:22:01;;;;;;;10.00;4.30;;;;;;;;;;5010495;28;20052;-69
2021/04/09 01:24:41;;;;;;;10.35;4.65;;;;;;;;;;5026721;28;20069;-70
2021/04/09 01:27:33;;;;;;;8.95;4.60;;;;;;;;;;5030457;28;20081;-70
2021/04/09 01:30:17;;;;;;;11.02;4.07;;;;;;;;;;5021995;28;20133;-69
2021/04/09 01:32:46;;;;;;;6.35;4.45;;;;;;;;;;5028463;28;20085;-71
2021/04/09 01:35:14;;;;;;;9.02;4.30;;;;;;;;;;5029675;28;20088;-70
2021/04/09 01:37:42;;;;;;;8.00;4.07;;;;;;;;;;5029265;28;20053;-67
2021/04/09 01:40:12;;;;;;;10.65;5.10;;;;;;;;;;5030339;28;20484;-67
2021/04/09 01:42:40;;;;;;;12.18;4.40;;;;;;;;;;5028256;28;20520;-68
2021/04/09 01:45:10;;;;;;;10.73;4.22;;;;;;;;;;5015557;28;20041;-69
2021/04/09 01:47:38;;;;;;;7.07;4.15;;;;;;;;;;5014032;28;20081;-68
2021/04/09 01:50:10;;;;;;;8.50;4.28;;;;;;;;;;5026700;28;20057;-70
2021/04/09 01:52:38;;;;;;;8.10;4.22;;;;;;;;;;5033270;28;20096;-69
2021/04/09 01:55:07;;;;;;;7.28;4.03;;;;;;;;;;5033542;28;20495;-69
2021/04/09 01:57:35;;;;;;;8.18;4.03;;;;;;;;;;5031688;28;20096;-69
2021/04/09 02:00:04;;;;;;;7.28;4.25;;;;;;;;;;5034139;28;20061;-70
2021/04/09 02:02:32;;;;;;;10.35;4.32;;;;;;;;;;5029894;28;20099;-69
2021/04/09 02:05:00;;;;;;;5.65;3.58;;;;;;;;;;5028349;28;20392;-69
2021/04/09 02:07:31;;;;;;;5.57;3.88;;;;;;;;;;5032639;28;20416;-69
2021/04/09 02:09:59;;;;;;;7.45;3.83;;;;;;;;;;5033693;28;20064;-68
2021/04/09 02:12:27;;;;;;;10.30;3.88;;;;;;;;;;5032634;28;20601;-70
2021/04/09 02:14:56;;;;;;;8.10;4.10;;;;;;;;;;5033332;28;20213;-69
2021/04/09 02:17:24;;;;;;;7.07;3.88;;;;;;;;;;5032977;28;20107;-69
2021/04/09 02:19:51;;;;;;;7.95;3.92;;;;;;;;;;5033438;28;20353;-69
2021/04/09 02:22:19;;;;;;;7.25;4.00;;;;;;;;;;5033362;28;20081;-69
2021/04/09 02:24:48;;;;;;;7.55;3.75;;;;;;;;;;5033578;28;20136;-69
2021/04/09 02:27:16;;;;;;;8.10;3.72;;;;;;;;;;5032810;28;20128;-69
2021/04/09 02:29:44;;;;;;;5.47;3.72;;;;;;;;;;5033647;28;20160;-68
2021/04/09 02:32:12;;;;;;;6.47;3.78;;;;;;;;;;5032640;28;20129;-69
2021/04/09 02:34:39;;;;;;;8.52;4.20;;;;;;;;;;5032881;28;20060;-69
2021/04/09 02:37:07;;;;;;;10.43;4.13;;;;;;;;;;5032300;28;20084;-69
2021/04/09 02:39:36;;;;;;;5.95;3.97;;;;;;;;;;5034545;28;20052;-69
2021/04/09 02:42:06;;;;;;;7.20;3.70;;;;;;;;;;5044142;28;20454;-69
2021/04/09 02:44:33;;;;;;;6.70;4.30;;;;;;;;;;5033843;28;20420;-69
2021/04/09 02:47:03;;;;;;;5.78;3.55;;;;;;;;;;5031635;28;20065;-71
2021/04/09 02:49:34;;;;;;;8.95;3.88;;;;;;;;;;5032439;28;20073;-68
2021/04/09 02:52:02;;;;;;;11.98;4.07;;;;;;;;;;5032492;28;20053;-72
2021/04/09 02:54:29;;;;;;;9.73;3.80;;;;;;;;;;5032232;28;20137;-69
2021/04/09 02:56:57;;;;;;;10.60;4.57;;;;;;;;;;5032225;28;20169;-69
2021/04/09 02:59:26;;;;;;;7.18;3.97;;;;;;;;;;5031653;28;20046;-69
2021/04/09 03:01:53;;;;;;;8.57;4.28;;;;;;;;;;5031721;28;20107;-69
2021/04/09 03:04:21;;;;;;;10.48;4.45;;;;;;;;;;5032702;28;20045;-69
2021/04/09 03:06:49;;;;;;;9.38;3.72;;;;;;;;;;5032246;28;20125;-69
2021/04/09 03:09:16;;;;;;;8.02;4.13;;;;;;;;;;5012885;28;20138;-69
2021/04/09 03:11:43;;;;;;;9.50;3.88;;;;;;;;;;5027752;28;20129;-68
2021/04/09 03:14:11;;;;;;;6.78;3.33;;;;;;;;;;5025277;28;20068;-69
2021/04/09 03:16:43;;;;;;;8.20;3.85;;;;;;;;;;5030231;28;20100;-69
2021/04/09 03:19:11;;;;;;;7.68;3.45;;;;;;;;;;5031883;28;20099;-69
2021/04/09 03:21:38;;;;;;;8.35;3.38;;;;;;;;;;5030549;28;20045;-69
2021/04/09 03:24:06;;;;;;;5.82;3.47;;;;;;;;;;5029205;28;20115;-69
2021/04/09 03:26:33;;;;;;;8.15;3.78;;;;;;;;;;5030589;28;20081;-70
2021/04/09 03:29:01;;;;;;;8.50;3.55;;;;;;;;;;5032378;28;20042;-69
2021/04/09 03:31:28;;;;;;;8.85;3.60;;;;;;;;;;5021975;28;20461;-68
2021/04/09 03:33:56;;;;;;;6.65;3.55;;;;;;;;;;5029161;28;20088;-68
2021/04/09 03:36:24;;;;;;;12.30;3.75;;;;;;;;;;5031839;28;20474;-70
2021/04/09 03:38:51;;;;;;;7.28;3.17;;;;;;;;;;5031962;28;20050;-68
2021/04/09 03:41:19;;;;;;;4.63;3.17;;;;;;;;;;5031382;28;20050;-69
2021/04/09 03:43:47;;;;;;;5.57;3.50;;;;;;;;;;5032197;28;20054;-69
2021/04/09 03:46:14;;;;;;;11.70;3.53;;;;;;;;;;5031060;28;20125;-69
2021/04/09 03:48:41;;;;;;;6.85;3.55;;;;;;;;;;5031236;28;20491;-70
2021/04/09 03:51:10;;;;;;;6.57;3.63;;;;;;;;;;5030700;28;20575;-69
2021/04/09 03:53:38;;;;;;;8.48;2.95;;;;;;;;;;5032331;28;20112;-69
2021/04/09 03:56:05;;;;;;;7.80;3.00;;;;;;;;;;5027096;28;20081;-71
2021/04/09 03:58:32;;;;;;;8.63;3.13;;;;;;;;;;5027312;28;20076;-71
2021/04/09 04:01:00;;;;;;;14.57;3.65;;;;;;;;;;5030938;28;20457;-69
2021/04/09 04:03:27;;;;;;;8.15;3.42;;;;;;;;;;4608249;28;10001187;-69
2021/04/09 04:05:54;;;;;;;6.05;2.90;;;;;;;;;;688020;28;10002024;-69
2021/04/09 04:08:22;;;;;;;6.22;3.38;;;;;;;;;;5014588;28;20292;-69
2021/04/09 04:10:50;;;;;;;6.85;3.40;;;;;;;;;;5026241;28;20572;-69
2021/04/09 04:13:17;;;;;;;6.60;3.13;;;;;;;;;;5028988;28;20110;-69
2021/04/09 04:15:44;;;;;;;6.30;3.08;;;;;;;;;;5029439;28;20053;-68
2021/04/09 04:18:12;;;;;;;6.57;3.05;;;;;;;;;;5029241;28;20069;-68
2021/04/09 04:20:39;;;;;;;7.82;3.40;;;;;;;;;;5026847;28;20076;-72
2021/04/09 04:23:06;;;;;;;8.70;3.40;;;;;;;;;;5027120;28;20057;-68
2021/04/09 04:25:35;;;;;;;9.32;3.15;;;;;;;;;;5031658;28;20053;-68
2021/04/09 04:28:02;;;;;;;4.43;2.83;;;;;;;;;;5030335;28;20108;-70
2021/04/09 04:30:29;;;;;;;6.22;3.25;;;;;;;;;;5024458;28;20129;-68
2021/04/09 04:32:57;;;;;;;4.97;3.00;;;;;;;;;;5031099;28;20550;-69
2021/04/09 04:35:24;;;;;;;5.68;3.28;;;;;;;;;;5028739;28;20130;-70
2021/04/09 04:37:51;;;;;;;6.95;3.17;;;;;;;;;;5030649;28;20088;-68
2021/04/09 04:40:20;;;;;;;8.80;3.35;;;;;;;;;;5022801;28;20049;-68
2021/04/09 04:42:48;;;;;;;5.70;3.33;;;;;;;;;;5031054;28;20053;-68
2021/04/09 04:45:17;;;;;;;5.88;3.25;;;;;;;;;;5031775;28;20069;-71
2021/04/09 04:47:45;;;;;;;6.38;3.25;;;;;;;;;;5030845;28;20053;-69
2021/04/09 04:50:12;;;;;;;3.67;2.65;;;;;;;;;;5031068;28;20049;-68
2021/04/09 04:52:40;;;;;;;5.03;3.13;;;;;;;;;;5031972;28;20128;-68
2021/04/09 04:55:07;;;;;;;5.93;2.92;;;;;;;;;;5027551;28;20140;-68
2021/04/09 04:57:35;;;;;;;6.15;3.03;;;;;;;;;;5028095;28;20065;-68
2021/04/09 05:00:04;;;;;;;7.43;3.15;;;;;;;;;;5030419;28;20452;-69
2021/04/09 05:02:32;;;;;;;7.22;3.17;;;;;;;;;;5029152;28;20084;-69
2021/04/09 05:04:59;;;;;;;6.22;2.97;;;;;;;;;;5026367;28;20132;-68
2021/04/09 05:07:27;;;;;;;6.35;3.05;;;;;;;;;;5031220;28;20124;-69
2021/04/09 05:09:54;;;;;;;6.07;3.22;;;;;;;;;;5028517;28;20061;-69
2021/04/09 05:12:22;;;;;;;5.82;2.95;;;;;;;;;;5016722;28;20077;-69
2021/04/09 05:14:51;;;;;;;6.35;3.25;;;;;;;;;;5024109;28;20435;-70
2021/04/09 05:17:20;;;;;;;8.45;3.97;;;;;;;;;;5025470;28;20484;-71
2021/04/09 05:19:47;;;;;;;9.25;2.95;;;;;;;;;;5022414;28;20555;-69
2021/04/09 05:22:14;;;;;;;11.00;3.20;;;;;;;;;;5031804;28;20069;-70
2021/04/09 05:24:41;;;;;;;7.53;3.30;;;;;;;;;;5034218;28;20052;-69
2021/04/09 05:27:09;;;;;;;7.15;3.05;;;;;;;;;;5029572;28;20526;-70
2021/04/09 05:29:37;;;;;;;7.25;3.35;;;;;;;;;;5031821;28;20116;-68
2021/04/09 05:32:06;;;;;;;8.55;3.35;;;;;;;;;;5032693;28;20053;-68
2021/04/09 05:34:34;;;;;;;9.15;3.80;;;;;;;;;;5022654;28;20103;-69
2021/04/09 05:37:02;;;;;;;11.93;3.45;;;;;;;;;;5032066;28;20057;-68
2021/04/09 05:39:29;;;;;;;7.65;2.92;;;;;;;;;;5031716;28;20045;-70
2021/04/09 05:41:56;;;;;;;9.70;3.55;;;;;;;;;;5033227;28;20075;-69
2021/04/09 05:44:24;;;;;;;7.65;3.13;;;;;;;;;;5029180;28;20080;-68
2021/04/09 05:46:52;;;;;;;7.60;3.40;;;;;;;;;;5034155;28;20077;-68
2021/04/09 05:49:19;;;;;;;8.63;3.25;;;;;;;;;;5028726;28;20503;-68
2021/04/09 05:51:47;;;;;;;7.95;3.97;;;;;;;;;;5032692;28;20077;-71
2021/04/09 05:54:15;;;;;;;7.78;3.35;;;;;;;;;;5024163;28;20492;-68
2021/04/09 05:56:42;;;;;;;15.25;4.03;;;;;;;;;;5022901;28;20194;-70
2021/04/09 05:59:10;;;;;;;6.93;4.28;;;;;;;;;;5023064;28;20099;-68
2021/04/09 06:01:37;;;;;;;8.48;3.72;;;;;;;;;;5025364;28;20456;-70
2021/04/09 06:04:05;;;;;;;10.30;3.20;;;;;;;;;;5024218;28;20045;-70
2021/04/09 06:06:32;;;;;;;9.10;3.58;;;;;;;;;;5024378;28;20112;-72
2021/04/09 06:09:02;;;;;;;8.30;3.55;;;;;;;;;;5024161;28;20053;-69
2021/04/09 06:11:30;;;;;;;7.60;3.60;;;;;;;;;;5029969;28;20056;-68
2021/04/09 06:13:58;;;;;;;10.52;3.65;;;;;;;;;;5018651;28;20526;-68
2021/04/09 06:16:25;;;;;;;7.88;3.45;;;;;;;;;;5023487;28;20092;-68
2021/04/09 06:18:53;;;;;;;9.52;3.70;;;;;;;;;;5029252;28;20068;-68
2021/04/09 06:21:21;;;;;;;7.47;3.40;;;;;;;;;;5029931;28;20057;-71
2021/04/09 06:23:48;;;;;;;11.50;3.58;;;;;;;;;;5015252;28;20088;-69
2021/04/09 06:26:17;;;;;;;10.10;4.00;;;;;;;;;;5012937;28;20046;-68
2021/04/09 06:28:46;;;;;;;12.73;4.60;;;;;;;;;;5022836;28;20073;-68
2021/04/09 06:31:13;;;;;;;19.70;5.97;;;;;;;;;;5025508;28;20457;-68
2021/04/09 06:33:54;;;;;;;25.58;6.50;;;;;;;;;;5019573;28;20053;-68
2021/04/09 06:36:21;;;;;;;13.13;5.60;;;;;;;;;;5022474;28;20080;-67
2021/04/09 06:38:49;;;;;;;20.58;4.05;;;;;;;;;;5027129;28;20060;-68
2021/04/09 06:41:20;;;;;;;12.95;3.03;;;;;;;;;;5027437;28;20064;-72
2021/04/09 06:43:48;;;;;;;10.25;2.67;;;;;;;;;;5029591;28;20049;-69
2021/04/09 06:46:16;;;;;;;14.85;2.63;;;;;;;;;;5026134;28;20514;-69
2021/04/09 06:48:44;;;;;;;8.18;2.40;;;;;;;;;;5027637;28;20049;-70
2021/04/09 06:51:12;;;;;;;14.57;2.88;;;;;;;;;;5025632;28;20073;-70
2021/04/09 06:53:41;;;;;;;10.65;2.63;;;;;;;;;;5023536;28;20049;-70
2021/04/09 06:56:09;;;;;;;11.82;2.30;;;;;;;;;;5030268;28;20058;-69
2021/04/09 06:58:38;;;;;;;4.47;2.08;;;;;;;;;;5020597;28;20088;-70
2021/04/09 07:01:07;;;;;;;10.57;1.88;;;;;;;;;;5019803;28;20065;-69
2021/04/09 07:03:34;;;;;;;6.03;2.00;;;;;;;;;;5024103;28;20126;-72
2021/04/09 07:06:02;;;;;;;8.90;3.25;;;;;;;;;;5025915;28;20064;-69
2021/04/09 07:08:30;;;;;;;5.40;1.90;;;;;;;;;;5016239;28;20164;-69
2021/04/09 07:10:57;;;;;;;6.75;1.90;;;;;;;;;;5029958;28;20050;-70
2021/04/09 07:13:26;;;;;;;6.47;1.75;;;;;;;;;;5028261;28;20057;-69
2021/04/09 07:15:55;;;;;;;9.35;2.15;;;;;;;;;;5016988;28;20097;-71
2021/04/09 07:18:44;;;;;;;5.43;1.77;;;;;;;;;;5021341;28;20081;-69
2021/04/09 07:21:19;;;;;;;4.50;1.63;;;;;;;;;;5027421;28;20068;-70
2021/04/09 07:23:47;;;;;;;6.07;1.60;;;;;;;;;;5022481;28;20510;-69
2021/04/09 07:26:29;;;;;;;6.75;1.85;;;;;;;;;;5027431;28;20057;-70
2021/04/09 07:28:57;;;;;;;6.88;1.90;;;;;;;;;;5026252;28;20049;-70
2021/04/09 07:31:29;;;;;;;5.72;1.75;;;;;;;;;;5026788;28;20052;-71
2021/04/09 07:33:56;;;;;;;4.22;1.48;;;;;;;;;;5027938;28;20496;-71
2021/04/09 07:36:24;;;;;;;3.45;1.60;;;;;;;;;;5028183;28;20786;-70
2021/04/09 07:38:52;;;;;;;6.10;2.03;;;;;;;;;;5027425;28;20084;-71
2021/04/09 07:41:20;;;;;;;4.93;1.65;;;;;;;;;;5027883;28;20507;-70
2021/04/09 07:43:48;;;;;;;6.93;2.13;;;;;;;;;;5027034;28;20053;-76
2021/04/09 07:46:22;;;;;;;9.77;2.17;;;;;;;;;;5023472;28;20443;-74
2021/04/09 07:49:01;;;;;;;10.10;2.17;;;;;;;;;;5025456;28;20045;-72
2021/04/09 07:51:29;;;;;;;6.00;2.90;;;;;;;;;;5023493;28;20400;-73
2021/04/09 07:54:08;;;;;;;9.00;1.95;;;;;;;;;;5023976;28;20061;-72
2021/04/09 07:56:42;;;;;;;4.45;2.13;;;;;;;;;;5024950;28;20107;-73
2021/04/09 07:59:09;;;;;;;9.68;2.33;;;;;;;;;;5026251;28;20505;-71
2021/04/09 08:01:47;;;;;;;5.38;1.88;;;;;;;;;;5021565;28;20061;-74
2021/04/09 08:04:16;;;;;;;7.35;1.75;;;;;;;;;;5024392;28;21605;-72
2021/04/09 08:06:44;;;;;;;5.57;1.80;;;;;;;;;;5026790;28;20054;-76
2021/04/09 08:09:12;;;;;;;13.23;2.70;;;;;;;;;;5024981;28;20050;-71
2021/04/09 08:11:40;;;;;;;6.70;2.00;;;;;;;;;;5016428;28;20140;-73
2021/04/09 08:14:10;;;;;;;10.52;2.10;;;;;;;;;;5023128;28;20045;-72
2021/04/09 08:16:39;;;;;;;4.82;1.75;;;;;;;;;;5023029;28;20125;-76
2021/04/09 08:19:09;;;;;;;5.97;1.77;;;;;;;;;;5021658;28;20049;-76
2021/04/09 08:21:39;;;;;;;4.93;2.15;;;;;;;;;;5018661;28;20128;-72
2021/04/09 08:24:08;;;;;;;5.35;1.30;;;;;;;;;;5023732;28;20060;-72
2021/04/09 08:26:36;;;;;;;5.20;1.52;;;;;;;;;;5021623;28;20052;-71
2021/04/09 08:29:04;;;;;;;7.93;2.03;;;;;;;;;;5026685;28;20057;-74
2021/04/09 08:31:32;;;;;;;3.42;1.40;;;;;;;;;;5019950;28;20488;-71
2021/04/09 08:34:01;;;;;;;3.83;1.17;;;;;;;;;;5021482;28;20530;-71
2021/04/09 08:36:29;;;;;;;3.00;1.20;;;;;;;;;;5023383;28;20125;-77
2021/04/09 08:38:58;;;;;;;3.90;1.10;;;;;;;;;;5022802;28;20041;-73
2021/04/09 08:41:26;;;;;;;3.30;1.73;;;;;;;;;;5018748;28;20127;-72
2021/04/09 08:43:55;;;;;;;6.57;1.38;;;;;;;;;;5019640;28;20045;-75
2021/04/09 08:46:23;;;;;;;3.85;1.40;;;;;;;;;;5018955;28;20556;-74
2021/04/09 08:48:51;;;;;;;3.78;1.38;;;;;;;;;;5019792;28;20396;-71
2021/04/09 08:51:22;;;;;;;3.25;1.20;;;;;;;;;;5022561;28;20552;-71
2021/04/09 08:53:50;;;;;;;9.23;1.35;;;;;;;;;;5019222;28;20080;-78
2021/04/09 08:56:32;;;;;;;6.22;1.25;;;;;;;;;;5020584;28;20041;-73
2021/04/09 08:59:00;;;;;;;2.50;1.40;;;;;;;;;;5021150;28;20064;-77
2021/04/09 09:01:28;;;;;;;3.70;1.50;;;;;;;;;;5016129;28;20053;-75
2021/04/09 09:04:26;;;;;;;4.07;1.40;;;;;;;;;;5012320;28;20042;-74
2021/04/09 09:06:54;;;;;;;4.25;1.30;;;;;;;;;;5018565;28;20042;-74
2021/04/09 09:09:28;;;;;;;7.10;1.45;;;;;;;;;;5019290;28;20056;-76
2021/04/09 09:11:56;;;;;;;3.38;1.45;;;;;;;;;;5024921;28;20049;-74
2021/04/09 09:14:38;;;;;;;4.25;1.48;;;;;;;;;;5020768;28;20201;-73
2021/04/09 09:17:25;;;;;;;4.10;1.52;;;;;;;;;;5015324;28;20064;-72
2021/04/09 09:20:07;;;;;;;3.20;1.30;;;;;;;;;;5020445;28;20056;-80
2021/04/09 09:22:43;;;;;;;3.08;1.50;;;;;;;;;;5019894;28;20075;-73
2021/04/09 09:25:11;;;;;;;6.93;1.30;;;;;;;;;;5022515;28;20049;-73
2021/04/09 09:27:46;;;;;;;3.58;1.52;;;;;;;;;;5019005;28;20552;-73
2021/04/09 09:30:29;;;;;;;3.55;1.38;;;;;;;;;;5022293;28;20042;-72
2021/04/09 09:33:23;;;;;;;9.27;1.50;;;;;;;;;;5022078;28;20519;-72
2021/04/09 09:36:00;;;;;;;3.92;1.63;;;;;;;;;;4986373;28;20045;-74
2021/04/09 09:38:50;;;;;;;3.83;1.20;;;;;;;;;;5021260;28;20064;-76
2021/04/09 09:41:38;;;;;;;3.65;1.50;;;;;;;;;;5022360;28;20054;-74
2021/04/09 09:44:20;;;;;;;2.55;1.60;;;;;;;;;;5017293;28;20045;-72
2021/04/09 09:46:52;;;;;;;6.28;1.52;;;;;;;;;;5022617;28;20049;-76
2021/04/09 09:49:20;;;;;;;3.42;1.58;;;;;;;;;;4981852;28;20054;-72
2021/04/09 09:51:48;;;;;;;5.90;1.98;;;;;;;;;;5003677;28;20058;-71
2021/04/09 09:54:26;;;;;;;4.57;2.47;;;;;;;;;;5001880;28;20049;-74
2021/04/09 09:56:56;;;;;;;6.30;1.83;;;;;;;;;;5002166;28;20565;-72
2021/04/09 09:59:26;;;;;;;11.73;2.40;;;;;;;;;;5001387;28;20042;-71
2021/04/09 10:01:57;;;;;;;6.65;1.70;;;;;;;;;;5003602;28;20313;-72
2021/04/09 10:04:25;;;;;;;6.35;1.95;;;;;;;;;;5001326;28;20038;-72
2021/04/09 10:06:54;;;;;;;7.15;2.00;;;;;;;;;;5006236;28;20042;-70
2021/04/09 10:09:29;;;;;;;4.47;2.50;;;;;;;;;;5006547;28;20058;-71
2021/04/09 10:11:57;;;;;;;7.38;1.65;;;;;;;;;;5005624;28;20045;-73
2021/04/09 10:14:28;;;;;;;6.95;1.80;;;;;;;;;;5006205;28;20050;-74
2021/04/09 10:16:59;;;;;;;3.83;1.67;;;;;;;;;;5004923;28;20046;-72
2021/04/09 10:19:27;;;;;;;3.05;1.63;;;;;;;;;;5011124;28;20050;-74
2021/04/09 10:21:55;;;;;;;5.78;1.88;;;;;;;;;;5003314;28;20145;-73
2021/04/09 10:24:37;;;;;;;5.18;1.70;;;;;;;;;;5006668;28;20088;-73
2021/04/09 10:27:07;;;;;;;3.25;1.80;;;;;;;;;;5005805;28;20046;-73
2021/04/09 10:29:36;;;;;;;4.05;1.98;;;;;;;;;;5012008;28;20053;-75
2021/04/09 10:32:07;;;;;;;6.05;1.90;;;;;;;;;;5001519;28;20058;-75
2021/04/09 10:34:35;;;;;;;2.40;1.58;;;;;;;;;;5006433;28;20492;-74
2021/04/09 10:37:05;;;;;;;4.60;1.65;;;;;;;;;;5006197;28;20049;-75
2021/04/09 10:39:33;;;;;;;5.18;1.80;;;;;;;;;;4993085;28;20086;-70
2021/04/09 10:42:02;;;;;;;4.75;1.80;;;;;;;;;;5000812;28;20045;-71
2021/04/09 10:44:32;;;;;;;3.88;1.83;;;;;;;;;;4995295;28;20058;-75
2021/04/09 10:47:01;;;;;;;2.15;1.45;;;;;;;;;;5005823;28;20050;-70
2021/04/09 10:49:30;;;;;;;4.82;1.80;;;;;;;;;;5006632;28;20041;-68
2021/04/09 10:51:58;;;;;;;10.48;2.05;;;;;;;;;;5009516;28;20417;-70
2021/04/09 10:54:26;;;;;;;3.95;1.30;;;;;;;;;;5010192;28;20112;-69
2021/04/09 10:56:55;;;;;;;5.13;1.73;;;;;;;;;;5002485;28;20180;-72
2021/04/09 10:59:26;;;;;;;2.15;1.35;;;;;;;;;;4996076;28;20402;-70
2021/04/09 11:01:54;;;;;;;2.58;1.33;;;;;;;;;;5002928;28;20148;-69
2021/04/09 11:04:23;;;;;;;15.75;1.75;;;;;;;;;;4993947;28;20077;-69
2021/04/09 11:06:52;;;;;;;4.70;1.58;;;;;;;;;;4995740;28;20058;-72
2021/04/09 11:09:20;;;;;;;4.18;1.30;;;;;;;;;;5003315;28;20096;-69
2021/04/09 11:11:48;;;;;;;17.77;1.58;;;;;;;;;;5010882;28;20504;-69
2021/04/09 11:14:18;;;;;;;6.88;1.50;;;;;;;;;;5011268;28;20374;-69
2021/04/09 11:16:53;;;;;;;6.78;1.85;;;;;;;;;;5010593;28;20042;-69
2021/04/09 11:19:32;;;;;;;4.55;1.40;;;;;;;;;;5014232;28;20132;-71
2021/04/09 11:22:02;;;;;;;2.50;1.20;;;;;;;;;;5050066;28;20057;-70
2021/04/09 11:24:30;;;;;;;5.90;1.70;;;;;;;;;;5049458;28;20052;-70
2021/04/09 11:26:59;;;;;;;2.85;1.50;;;;;;;;;;5043122;28;20047;-72
2021/04/09 11:29:28;;;;;;;3.25;1.48;;;;;;;;;;5049052;28;20233;-69
2021/04/09 11:32:12;;;;;;;4.78;1.20;;;;;;;;;;5047626;28;20060;-70
2021/04/09 11:34:41;;;;;;;2.92;1.50;;;;;;;;;;5043301;28;20561;-69
2021/04/09 11:37:11;;;;;;;4.40;1.50;;;;;;;;;;5049499;28;20072;-70
2021/04/09 11:39:48;;;;;;;2.38;1.63;;;;;;;;;;5049460;28;20115;-70
2021/04/09 11:42:26;;;;;;;3.83;1.42;;;;;;;;;;5045826;28;20056;-70
2021/04/09 11:44:54;;;;;;;5.10;1.67;;;;;;;;;;5041838;28;20045;-69
2021/04/09 11:47:23;;;;;;;3.78;1.48;;;;;;;;;;5050878;28;20053;-70
2021/04/09 11:50:10;;;;;;;5.05;1.58;;;;;;;;;;5043566;28;20061;-70
2021/04/09 11:52:52;;;;;;;2.20;1.30;;;;;;;;;;5045024;28;20068;-70
2021/04/09 11:55:21;;;;;;;4.90;1.33;;;;;;;;;;5047087;28;20137;-69
2021/04/09 11:57:49;;;;;;;3.17;1.70;;;;;;;;;;5045546;28;20056;-69
2021/04/09 12:00:18;;;;;;;2.42;1.30;;;;;;;;;;5032517;28;20049;-69
2021/04/09 12:02:49;;;;;;;5.30;1.20;;;;;;;;;;5040263;28;20604;-68
2021/04/09 12:05:18;;;;;;;5.13;1.50;;;;;;;;;;5043015;28;20053;-69
2021/04/09 12:07:46;;;;;;;2.65;1.50;;;;;;;;;;5048689;28;20494;-70
2021/04/09 12:10:15;;;;;;;1.77;1.00;;;;;;;;;;5048329;28;20044;-70
2021/04/09 12:12:44;;;;;;;5.57;1.50;;;;;;;;;;5028812;28;20052;-70
2021/04/09 12:15:16;;;;;;;3.17;1.58;;;;;;;;;;5041535;28;20051;-70
2021/04/09 12:17:43;;;;;;;4.85;1.50;;;;;;;;;;5049226;28;20099;-70
2021/04/09 12:20:12;;;;;;;3.05;1.40;;;;;;;;;;5046857;28;20083;-73
2021/04/09 12:22:40;;;;;;;3.20;1.38;;;;;;;;;;5047270;28;20056;-69
2021/04/09 12:25:09;;;;;;;3.38;1.40;;;;;;;;;;5051570;28;20495;-68
2021/04/09 12:27:37;;;;;;;3.42;1.50;;;;;;;;;;5053163;28;20103;-70
2021/04/09 12:30:06;;;;;;;4.68;1.60;;;;;;;;;;5046648;28;20056;-72
2021/04/09 12:32:34;;;;;;;3.45;1.50;;;;;;;;;;5048078;28;20060;-69
2021/04/09 12:35:02;;;;;;;2.80;1.45;;;;;;;;;;5050151;28;20049;-75
2021/04/09 12:37:30;;;;;;;4.38;1.50;;;;;;;;;;5047838;28;20069;-71
2021/04/09 12:39:58;;;;;;;4.80;1.70;;;;;;;;;;5048930;28;20115;-69
2021/04/09 12:42:26;;;;;;;4.38;1.70;;;;;;;;;;5047215;28;20041;-69
2021/04/09 12:44:54;;;;;;;3.78;1.90;;;;;;;;;;5047988;28;20103;-69
2021/04/09 12:47:22;;;;;;;4.13;1.52;;;;;;;;;;5047226;28;20053;-68
2021/04/09 12:49:50;;;;;;;8.15;2.08;;;;;;;;;;5047365;28;20076;-69
2021/04/09 12:52:18;;;;;;;4.82;2.15;;;;;;;;;;5050097;28;20052;-68
2021/04/09 12:54:46;;;;;;;8.40;2.45;;;;;;;;;;5043405;28;20492;-69
2021/04/09 12:57:16;;;;;;;9.52;1.83;;;;;;;;;;5038977;28;20055;-71
2021/04/09 12:59:44;;;;;;;5.05;1.80;;;;;;;;;;5049138;28;20045;-71
2021/04/09 13:02:22;;;;;;;4.95;1.60;;;;;;;;;;5044319;28;20365;-69
2021/04/09 13:04:50;;;;;;;3.30;1.60;;;;;;;;;;5044724;28;20786;-68
2021/04/09 13:07:17;;;;;;;4.75;1.63;;;;;;;;;;5055058;28;20051;-68
2021/04/09 13:09:45;;;;;;;3.10;1.70;;;;;;;;;;5054264;28;20076;-69
2021/04/09 13:12:14;;;;;;;4.72;2.03;;;;;;;;;;5029549;28;20053;-68
2021/04/09 13:14:41;;;;;;;3.30;1.80;;;;;;;;;;5038483;28;20407;-70
2021/04/09 13:17:10;;;;;;;4.25;1.70;;;;;;;;;;5041592;28;20064;-68
2021/04/09 13:19:39;;;;;;;3.25;1.73;;;;;;;;;;5043721;28;20060;-69
2021/04/09 13:22:08;;;;;;;10.70;2.58;;;;;;;;;;5038222;28;20046;-69
2021/04/09 13:24:36;;;;;;;4.63;1.52;;;;;;;;;;5041006;28;20090;-68
2021/04/09 13:27:04;;;;;;;4.28;1.63;;;;;;;;;;5045263;28;20107;-68
2021/04/09 13:29:32;;;;;;;5.60;1.38;;;;;;;;;;5036308;28;20060;-66
2021/04/09 13:32:00;;;;;;;3.13;1.27;;;;;;;;;;5028589;28;20049;-67
2021/04/09 13:34:29;;;;;;;4.30;1.70;;;;;;;;;;5037848;28;20044;-66
2021/04/09 13:36:57;;;;;;;6.38;1.80;;;;;;;;;;5045758;28;20057;-65
2021/04/09 13:39:28;;;;;;;5.00;1.88;;;;;;;;;;5044858;28;20392;-67
2021/04/09 13:41:56;;;;;;;3.13;2.00;;;;;;;;;;5044651;28;20076;-67
2021/04/09 13:44:24;;;;;;;4.22;1.48;;;;;;;;;;5048581;28;20613;-67
2021/04/09 13:46:52;;;;;;;4.53;1.48;;;;;;;;;;5048902;28;20049;-67
2021/04/09 13:49:20;;;;;;;4.07;1.73;;;;;;;;;;5048090;28;20049;-66
2021/04/09 13:51:47;;;;;;;5.82;1.80;;;;;;;;;;5048973;28;20088;-67
2021/04/09 13:54:15;;;;;;;3.17;1.70;;;;;;;;;;5041545;28;20119;-69
2021/04/09 13:56:43;;;;;;;3.90;1.88;;;;;;;;;;5037586;28;20095;-69
2021/04/09 13:59:12;;;;;;;4.22;1.70;;;;;;;;;;5036554;28;20375;-67
2021/04/09 14:01:40;;;;;;;5.03;1.70;;;;;;;;;;5049554;28;20056;-67
2021/04/09 14:04:08;;;;;;;2.97;1.38;;;;;;;;;;5048777;28;20041;-67
2021/04/09 14:06:35;;;;;;;5.13;1.85;;;;;;;;;;5047169;28;20041;-71
2021/04/09 14:09:03;;;;;;;8.15;1.75;;;;;;;;;;5049899;28;20052;-68
2021/04/09 14:11:32;;;;;;;6.40;1.60;;;;;;;;;;5048590;28;20144;-68
2021/04/09 14:14:00;;;;;;;4.85;1.77;;;;;;;;;;5048585;28;20080;-65
2021/04/09 14:16:28;;;;;;;5.30;1.58;;;;;;;;;;5050508;28;20052;-66
2021/04/09 14:18:56;;;;;;;4.93;1.90;;;;;;;;;;5050524;28;20087;-67
2021/04/09 14:21:25;;;;;;;3.45;1.55;;;;;;;;;;5045648;28;20099;-68
2021/04/09 14:23:53;;;;;;;3.40;1.30;;;;;;;;;;5042774;28;20045;-67
2021/04/09 14:26:20;;;;;;;3.95;1.70;;;;;;;;;;5043809;28;20049;-67
2021/04/09 14:28:50;;;;;;;3.47;1.50;;;;;;;;;;5050691;28;20186;-68
2021/04/09 14:31:17;;;;;;;6.80;1.80;;;;;;;;;;5051583;28;20048;-67
2021/04/09 14:33:45;;;;;;;5.75;1.52;;;;;;;;;;5053236;28;20049;-68
2021/04/09 14:36:12;;;;;;;4.68;1.80;;;;;;;;;;5047302;28;20099;-66
2021/04/09 14:38:40;;;;;;;6.82;1.85;;;;;;;;;;5051745;28;20136;-66
2021/04/09 14:41:08;;;;;;;7.80;1.75;;;;;;;;;;5052495;28;20041;-67
2021/04/09 14:43:36;;;;;;;5.45;1.85;;;;;;;;;;5049765;28;20049;-63
2021/04/09 14:46:04;;;;;;;6.00;2.03;;;;;;;;;;5040075;28;20056;-63
2021/04/09 14:48:32;;;;;;;5.25;1.70;;;;;;;;;;5044424;28;20222;-63
2021/04/09 14:51:00;;;;;;;3.70;1.77;;;;;;;;;;5047911;28;20053;-63
2021/04/09 14:53:29;;;;;;;4.03;1.85;;;;;;;;;;5039305;28;20578;-63
2021/04/09 14:55:57;;;;;;;3.88;1.95;;;;;;;;;;5050716;28;20469;-63
2021/04/09 14:58:25;;;;;;;2.80;1.75;;;;;;;;;;5051046;28;20053;-64
2021/04/09 15:00:53;;;;;;;2.58;1.63;;;;;;;;;;5051722;28;20048;-63
2021/04/09 15:03:22;;;;;;;3.72;1.67;;;;;;;;;;5035456;28;20053;-64
2021/04/09 15:05:49;;;;;;;6.72;1.70;;;;;;;;;;5051334;28;20518;-63